createdAt,value
2023-04-30T00:00:13.409Z,12.50
2023-04-30T00:03:00.391Z,12.50
2023-04-30T00:05:51.526Z,12.50
2023-04-30T00:08:37.890Z,12.50
2023-04-30T00:11:25.786Z,12.50
2023-04-30T00:14:12.259Z,12.50
2023-04-30T00:16:58.560Z,12.60
2023-04-30T00:19:45.057Z,12.50
2023-04-30T00:22:33.363Z,12.50
2023-04-30T00:25:21.017Z,12.50
2023-04-30T00:28:07.328Z,12.50
2023-04-30T00:30:53.750Z,12.60
2023-04-30T00:33:40.096Z,12.50
2023-04-30T00:36:26.367Z,12.50
2023-04-30T00:39:13.956Z,12.50
2023-04-30T00:42:00.856Z,12.50
2023-04-30T00:44:47.363Z,12.50
2023-04-30T00:47:33.879Z,12.50
2023-04-30T00:50:20.873Z,12.50
2023-04-30T00:53:07.483Z,12.40
2023-04-30T00:55:56.215Z,12.50
2023-04-30T00:58:43.022Z,12.40
2023-04-30T01:01:29.908Z,12.40
2023-04-30T01:04:16.630Z,12.30
2023-04-30T01:07:03.450Z,12.30
2023-04-30T01:09:50.215Z,12.30
2023-04-30T01:12:45.639Z,12.20
2023-04-30T01:15:39.450Z,12.30
2023-04-30T01:18:30.123Z,12.40
2023-04-30T01:21:19.815Z,12.30
2023-04-30T01:24:42.788Z,12.30
2023-04-30T01:27:40.520Z,12.30
2023-04-30T01:30:29.874Z,12.30
2023-04-30T01:33:16.334Z,12.30
2023-04-30T01:36:21.840Z,12.30
2023-04-30T01:39:26.626Z,12.30
2023-04-30T01:42:18.665Z,12.30
2023-04-30T01:45:25.803Z,12.30
2023-04-30T01:48:23.891Z,12.20
2023-04-30T01:51:20.508Z,12.10
2023-04-30T01:54:12.570Z,12.00
2023-04-30T01:57:04.923Z,12.00
2023-04-30T01:59:52.701Z,12.00
2023-04-30T02:02:39.791Z,12.00
2023-04-30T02:05:28.782Z,11.90
2023-04-30T02:08:15.904Z,12.00
2023-04-30T02:11:01.988Z,12.10
2023-04-30T02:13:48.900Z,12.10
2023-04-30T02:16:35.310Z,12.10
2023-04-30T02:19:21.989Z,12.10
2023-04-30T02:22:09.842Z,12.10
2023-04-30T02:24:57.325Z,12.00
2023-04-30T02:27:43.969Z,12.00
2023-04-30T02:30:30.830Z,12.00
2023-04-30T02:33:17.291Z,12.00
2023-04-30T02:36:03.645Z,11.90
2023-04-30T02:38:51.297Z,11.90
2023-04-30T02:41:38.189Z,11.90
2023-04-30T02:44:24.857Z,11.80
2023-04-30T02:47:11.550Z,11.90
2023-04-30T02:49:58.383Z,11.80
2023-04-30T02:52:47.297Z,11.80
2023-04-30T02:55:34.870Z,11.80
2023-04-30T02:58:21.686Z,11.80
2023-04-30T03:01:08.188Z,11.80
2023-04-30T03:03:54.963Z,11.70
2023-04-30T03:06:41.755Z,11.70
2023-04-30T03:09:28.747Z,11.70
2023-04-30T03:12:16.543Z,11.70
2023-04-30T03:15:03.512Z,11.60
2023-04-30T03:17:50.473Z,11.70
2023-04-30T03:20:37.370Z,11.70
2023-04-30T03:23:23.791Z,11.60
2023-04-30T03:26:10.675Z,11.60
2023-04-30T03:28:58.402Z,11.60
2023-04-30T03:31:44.827Z,11.60
2023-04-30T03:34:32.596Z,11.50
2023-04-30T03:37:20.647Z,11.50
2023-04-30T03:40:08.553Z,11.50
2023-04-30T03:42:55.403Z,11.60
2023-04-30T03:45:43.340Z,11.60
2023-04-30T03:48:30.152Z,11.50
2023-04-30T03:51:16.893Z,11.50
2023-04-30T03:54:03.717Z,11.50
2023-04-30T03:56:50.247Z,11.60
2023-04-30T03:59:36.584Z,11.60
2023-04-30T04:02:24.477Z,11.50
2023-04-30T04:05:11.544Z,11.50
2023-04-30T04:07:58.206Z,11.50
2023-04-30T04:10:44.807Z,11.50
2023-04-30T04:13:31.412Z,11.50
2023-04-30T04:16:18.833Z,11.60
2023-04-30T04:19:06.737Z,11.60
2023-04-30T04:21:53.633Z,11.50
2023-04-30T04:24:41.710Z,11.50
2023-04-30T04:27:31.581Z,11.50
2023-04-30T04:30:18.435Z,11.50
2023-04-30T04:33:06.940Z,11.50
2023-04-30T04:35:57.926Z,11.50
2023-04-30T04:38:44.608Z,11.50
2023-04-30T04:41:32.614Z,11.40
2023-04-30T04:44:20.301Z,11.40
2023-04-30T04:47:10.973Z,11.40
2023-04-30T04:49:57.758Z,11.40
2023-04-30T04:52:45.983Z,11.40
2023-04-30T04:55:32.479Z,11.50
2023-04-30T04:58:19.216Z,11.50
2023-04-30T05:01:06.017Z,11.40
2023-04-30T05:03:53.915Z,11.50
2023-04-30T05:06:40.851Z,11.50
2023-04-30T05:09:28.955Z,11.50
2023-04-30T05:12:16.340Z,11.60
2023-04-30T05:15:03.027Z,11.60
2023-04-30T05:17:49.399Z,11.60
2023-04-30T05:20:36.035Z,11.60
2023-04-30T05:23:22.436Z,11.70
2023-04-30T05:26:10.117Z,11.70
2023-04-30T05:28:56.482Z,11.80
2023-04-30T05:31:42.978Z,11.80
2023-04-30T05:34:29.383Z,11.90
2023-04-30T05:37:17.555Z,11.90
2023-04-30T05:40:06.248Z,12.00
2023-04-30T05:42:54.355Z,12.20
2023-04-30T05:45:41.061Z,12.30
2023-04-30T05:48:27.756Z,12.40
2023-04-30T05:51:14.256Z,12.50
2023-04-30T05:54:00.763Z,12.60
2023-04-30T05:56:47.579Z,13.00
2023-04-30T05:59:35.400Z,13.50
2023-04-30T06:02:22.043Z,14.20
2023-04-30T06:05:09.705Z,14.80
2023-04-30T06:07:56.501Z,15.10
2023-04-30T06:10:43.246Z,15.20
2023-04-30T06:13:30.045Z,15.50
2023-04-30T06:16:17.860Z,16.00
2023-04-30T06:19:04.259Z,16.00
2023-04-30T06:21:51.043Z,15.80
2023-04-30T06:24:37.361Z,15.40
2023-04-30T06:27:23.923Z,15.30
2023-04-30T06:30:11.064Z,15.70
2023-04-30T06:32:58.970Z,15.70
2023-04-30T06:35:45.802Z,16.30
2023-04-30T06:38:32.247Z,17.00
2023-04-30T06:41:19.323Z,17.40
2023-04-30T06:44:06.327Z,17.60
2023-04-30T06:46:52.874Z,17.70
2023-04-30T06:49:41.131Z,17.30
2023-04-30T06:52:27.868Z,17.30
2023-04-30T06:55:14.359Z,17.20
2023-04-30T06:58:01.204Z,17.30
2023-04-30T07:00:47.627Z,17.60
2023-04-30T07:03:36.127Z,17.70
2023-04-30T07:06:24.728Z,18.10
2023-04-30T07:09:12.897Z,18.70
2023-04-30T07:11:59.794Z,17.80
2023-04-30T07:14:46.453Z,17.90
2023-04-30T07:17:32.897Z,18.50
2023-04-30T07:20:19.304Z,19.10
2023-04-30T07:23:07.135Z,19.20
2023-04-30T07:25:53.515Z,18.80
2023-04-30T07:28:40.608Z,18.30
2023-04-30T07:31:28.033Z,18.50
2023-04-30T07:34:14.578Z,18.90
2023-04-30T07:37:01.138Z,18.70
2023-04-30T07:39:49.072Z,17.90
2023-04-30T07:42:36.046Z,18.20
2023-04-30T07:45:22.557Z,17.50
2023-04-30T07:48:09.217Z,18.10
2023-04-30T07:50:56.750Z,18.20
2023-04-30T07:53:43.527Z,18.20
2023-04-30T07:56:31.197Z,18.40
2023-04-30T07:59:17.729Z,19.10
2023-04-30T08:02:04.700Z,19.40
2023-04-30T08:04:51.597Z,19.50
2023-04-30T08:07:38.166Z,19.60
2023-04-30T08:10:25.323Z,19.70
2023-04-30T08:13:13.395Z,19.50
2023-04-30T08:16:00.398Z,19.20
2023-04-30T08:18:49.221Z,19.30
2023-04-30T08:21:36.094Z,18.20
2023-04-30T08:24:23.018Z,17.60
2023-04-30T08:27:09.489Z,17.40
2023-04-30T08:29:57.305Z,18.00
2023-04-30T08:32:43.832Z,17.10
2023-04-30T08:35:30.696Z,16.70
2023-04-30T08:38:17.395Z,16.40
2023-04-30T08:41:10.283Z,16.30
2023-04-30T08:44:02.265Z,16.30
2023-04-30T08:46:53.216Z,16.20
2023-04-30T08:49:39.886Z,16.30
2023-04-30T08:52:27.794Z,16.20
2023-04-30T08:55:14.527Z,16.10
2023-04-30T08:58:00.920Z,16.30
2023-04-30T09:00:47.926Z,16.30
2023-04-30T09:03:36.063Z,16.60
2023-04-30T09:06:23.108Z,16.80
2023-04-30T09:09:12.636Z,16.70
2023-04-30T09:12:20.430Z,16.60
2023-04-30T09:15:09.521Z,16.60
2023-04-30T09:18:12.388Z,16.60
2023-04-30T09:21:02.957Z,16.50
2023-04-30T09:23:57.200Z,16.70
2023-04-30T09:26:43.698Z,16.90
2023-04-30T09:29:38.485Z,16.90
2023-04-30T09:32:25.005Z,16.60
2023-04-30T09:35:30.400Z,16.40
2023-04-30T09:38:29.060Z,16.50
2023-04-30T09:41:26.166Z,16.60
2023-04-30T09:44:28.370Z,16.80
2023-04-30T09:47:16.889Z,17.30
2023-04-30T09:50:03.787Z,17.30
2023-04-30T09:52:54.691Z,16.90
2023-04-30T09:55:45.012Z,16.60
2023-04-30T09:58:37.328Z,16.40
2023-04-30T10:01:27.065Z,16.20
2023-04-30T10:04:14.215Z,16.10
2023-04-30T10:07:03.621Z,16.30
2023-04-30T10:09:52.208Z,16.40
2023-04-30T10:12:44.692Z,16.50
2023-04-30T10:15:39.164Z,16.50
2023-04-30T10:18:32.257Z,16.70
2023-04-30T10:21:19.460Z,16.60
2023-04-30T10:24:06.634Z,16.50
2023-04-30T10:26:53.523Z,16.50
2023-04-30T10:29:41.263Z,16.40
2023-04-30T10:32:38.631Z,16.20
2023-04-30T10:35:28.332Z,16.40
2023-04-30T10:38:23.123Z,16.30
2023-04-30T10:41:10.655Z,16.50
2023-04-30T10:44:01.689Z,16.60
2023-04-30T10:46:50.212Z,16.50
2023-04-30T10:49:37.205Z,16.70
2023-04-30T10:52:29.681Z,16.80
2023-04-30T10:55:19.001Z,16.90
2023-04-30T10:58:25.171Z,17.00
2023-04-30T11:01:14.829Z,17.00
2023-04-30T11:04:10.071Z,16.90
2023-04-30T11:07:12.620Z,16.80
2023-04-30T11:09:59.262Z,16.90
2023-04-30T11:12:50.401Z,16.80
2023-04-30T11:15:42.229Z,16.90
2023-04-30T11:18:29.151Z,17.00
2023-04-30T11:21:16.878Z,17.10
2023-04-30T11:24:05.099Z,17.00
2023-04-30T11:27:05.390Z,17.20
2023-04-30T11:29:53.506Z,17.50
2023-04-30T11:32:41.268Z,17.80
2023-04-30T11:35:30.210Z,18.00
2023-04-30T11:38:19.328Z,18.10
2023-04-30T11:41:06.440Z,18.00
2023-04-30T11:43:53.114Z,17.80
2023-04-30T11:46:42.903Z,17.50
2023-04-30T11:49:29.683Z,17.50
2023-04-30T11:52:16.312Z,17.60
2023-04-30T11:55:08.046Z,17.70
2023-04-30T11:57:56.147Z,17.50
2023-04-30T12:00:43.102Z,17.60
2023-04-30T12:03:30.627Z,17.70
2023-04-30T12:06:24.070Z,17.40
2023-04-30T12:09:11.733Z,17.60
2023-04-30T12:12:00.022Z,17.60
2023-04-30T12:14:47.166Z,17.50
2023-04-30T12:17:35.629Z,17.50
2023-04-30T12:20:23.085Z,17.50
2023-04-30T12:23:10.339Z,17.70
2023-04-30T12:26:01.050Z,17.50
2023-04-30T12:28:50.070Z,17.30
2023-04-30T12:31:38.611Z,17.30
2023-04-30T12:34:28.022Z,17.30
2023-04-30T12:37:17.206Z,17.40
2023-04-30T12:40:04.352Z,17.80
2023-04-30T12:42:51.537Z,17.90
2023-04-30T12:45:51.448Z,17.80
2023-04-30T12:48:45.328Z,17.70
2023-04-30T12:51:35.968Z,17.60
2023-04-30T12:54:29.999Z,17.50
2023-04-30T12:57:16.411Z,17.40
2023-04-30T13:00:05.565Z,17.40
2023-04-30T13:02:53.636Z,17.40
2023-04-30T13:05:41.301Z,17.40
2023-04-30T13:08:27.947Z,17.40
2023-04-30T13:11:14.456Z,17.40
2023-04-30T13:14:01.328Z,17.50
2023-04-30T13:16:48.684Z,17.60
2023-04-30T13:19:36.668Z,17.50
2023-04-30T13:22:25.170Z,17.60
2023-04-30T13:25:12.074Z,17.60
2023-04-30T13:27:58.761Z,17.60
2023-04-30T13:30:45.306Z,17.60
2023-04-30T13:33:31.932Z,17.70
2023-04-30T13:36:19.999Z,17.60
2023-04-30T13:39:06.834Z,17.60
2023-04-30T13:41:53.372Z,17.60
2023-04-30T13:44:40.371Z,17.50
2023-04-30T13:47:26.962Z,17.50
2023-04-30T13:50:13.890Z,17.50
2023-04-30T13:53:02.091Z,17.60
2023-04-30T13:55:48.533Z,17.70
2023-04-30T13:58:34.964Z,17.80
2023-04-30T14:01:21.327Z,17.90
2023-04-30T14:04:08.436Z,18.10
2023-04-30T14:06:56.624Z,18.00
2023-04-30T14:09:44.528Z,18.10
2023-04-30T14:12:31.416Z,18.10
2023-04-30T14:15:17.811Z,18.00
2023-04-30T14:18:04.777Z,18.00
2023-04-30T14:20:51.414Z,17.90
2023-04-30T14:23:38.696Z,17.80
2023-04-30T14:26:26.656Z,17.80
2023-04-30T14:29:13.498Z,17.80
2023-04-30T14:32:01.326Z,17.60
2023-04-30T14:34:48.275Z,17.80
2023-04-30T14:37:34.820Z,17.90
2023-04-30T14:40:21.804Z,17.90
2023-04-30T14:43:09.508Z,17.80
2023-04-30T14:45:56.383Z,17.60
2023-04-30T14:48:42.981Z,17.60
2023-04-30T14:51:29.647Z,17.60
2023-04-30T14:54:16.381Z,17.60
2023-04-30T14:57:04.007Z,17.60
2023-04-30T14:59:55.087Z,17.60
2023-04-30T15:02:42.195Z,17.60
2023-04-30T15:05:30.386Z,17.70
2023-04-30T15:08:17.429Z,17.70
2023-04-30T15:11:06.944Z,17.90
2023-04-30T15:13:55.205Z,18.10
2023-04-30T15:16:43.282Z,17.90
2023-04-30T15:19:30.514Z,17.90
2023-04-30T15:22:17.305Z,17.90
2023-04-30T15:25:05.602Z,17.90
2023-04-30T15:27:52.316Z,18.00
2023-04-30T15:30:38.859Z,17.90
2023-04-30T15:33:28.681Z,17.90
2023-04-30T15:36:15.324Z,17.90
2023-04-30T15:39:01.555Z,17.90
2023-04-30T15:41:47.912Z,17.80
2023-04-30T15:44:34.245Z,17.80
2023-04-30T15:47:21.871Z,17.90
2023-04-30T15:50:12.422Z,17.90
2023-04-30T15:52:59.379Z,17.80
2023-04-30T15:55:46.627Z,17.80
2023-04-30T15:58:33.397Z,17.60
2023-04-30T16:01:19.839Z,17.70
2023-04-30T16:04:07.079Z,17.80
2023-04-30T16:06:56.972Z,17.80
2023-04-30T16:09:45.750Z,17.90
2023-04-30T16:12:34.133Z,17.80
2023-04-30T16:15:20.969Z,17.80
2023-04-30T16:18:07.717Z,17.80
2023-04-30T16:20:54.015Z,17.90
2023-04-30T16:23:41.833Z,17.90
2023-04-30T16:26:28.601Z,17.80
2023-04-30T16:29:15.193Z,17.70
2023-04-30T16:32:01.929Z,17.60
2023-04-30T16:34:48.567Z,17.60
2023-04-30T16:37:34.928Z,17.70
2023-04-30T16:40:22.574Z,17.70
2023-04-30T16:43:09.482Z,17.60
2023-04-30T16:45:56.155Z,17.60
2023-04-30T16:48:43.162Z,17.60
2023-04-30T16:51:30.210Z,17.60
2023-04-30T16:54:16.550Z,17.50
2023-04-30T16:57:04.684Z,17.50
2023-04-30T16:59:51.206Z,17.60
2023-04-30T17:02:38.147Z,17.60
2023-04-30T17:05:25.168Z,17.50
2023-04-30T17:08:11.996Z,17.50
2023-04-30T17:10:58.271Z,17.50
2023-04-30T17:13:46.043Z,17.40
2023-04-30T17:16:32.657Z,17.40
2023-04-30T17:19:19.335Z,17.40
2023-04-30T17:22:06.103Z,17.40
2023-04-30T17:24:52.538Z,17.30
2023-04-30T17:27:39.267Z,17.30
2023-04-30T17:30:27.205Z,17.30
2023-04-30T17:33:13.771Z,17.30
2023-04-30T17:36:00.602Z,17.30
2023-04-30T17:38:47.068Z,17.30
2023-04-30T17:41:33.655Z,17.30
2023-04-30T17:44:19.943Z,17.20
2023-04-30T17:47:07.744Z,17.10
2023-04-30T17:49:54.717Z,17.20
2023-04-30T17:52:41.654Z,17.20
2023-04-30T17:55:28.239Z,17.10
2023-04-30T17:58:14.616Z,17.10
2023-04-30T18:01:03.443Z,17.10
2023-04-30T18:03:51.608Z,17.00
2023-04-30T18:06:38.386Z,17.10
2023-04-30T18:09:25.421Z,17.10
2023-04-30T18:12:12.372Z,17.00
2023-04-30T18:14:59.072Z,17.00
2023-04-30T18:17:45.640Z,16.90
2023-04-30T18:20:33.577Z,16.80
2023-04-30T18:23:20.966Z,16.90
2023-04-30T18:26:08.070Z,16.90
2023-04-30T18:28:55.006Z,16.60
2023-04-30T18:31:41.483Z,16.40
2023-04-30T18:34:28.408Z,16.20
2023-04-30T18:37:17.773Z,16.00
2023-04-30T18:40:05.037Z,15.90
2023-04-30T18:42:51.922Z,15.80
2023-04-30T18:45:38.932Z,15.70
2023-04-30T18:48:25.695Z,15.60
2023-04-30T18:51:12.078Z,15.50
2023-04-30T18:54:00.191Z,15.40
2023-04-30T18:56:47.117Z,15.10
2023-04-30T18:59:34.133Z,15.10
2023-04-30T19:02:21.838Z,14.90
2023-04-30T19:05:09.191Z,14.90
2023-04-30T19:07:55.703Z,14.80
2023-04-30T19:10:43.526Z,14.80
2023-04-30T19:13:29.891Z,14.60
2023-04-30T19:16:16.938Z,14.40
2023-04-30T19:19:03.926Z,14.50
2023-04-30T19:21:50.615Z,14.40
2023-04-30T19:24:37.455Z,14.40
2023-04-30T19:27:25.171Z,14.30
2023-04-30T19:30:12.990Z,14.10
2023-04-30T19:32:59.553Z,14.10
2023-04-30T19:35:49.417Z,14.00
2023-04-30T19:38:36.142Z,13.90
2023-04-30T19:41:22.674Z,13.70
2023-04-30T19:44:11.562Z,13.70
2023-04-30T19:46:58.818Z,13.50
2023-04-30T19:49:47.281Z,13.50
2023-04-30T19:52:34.103Z,13.50
2023-04-30T19:55:21.422Z,13.40
2023-04-30T19:58:08.125Z,13.30
2023-04-30T20:00:56.523Z,13.10
2023-04-30T20:03:43.759Z,13.10
2023-04-30T20:06:30.346Z,13.00
2023-04-30T20:09:17.007Z,12.90
2023-04-30T20:12:04.163Z,12.80
2023-04-30T20:14:50.797Z,12.90
2023-04-30T20:17:38.673Z,13.10
2023-04-30T20:20:25.461Z,13.10
2023-04-30T20:23:13.942Z,13.00
2023-04-30T20:26:00.728Z,12.90
2023-04-30T20:28:47.182Z,12.80
2023-04-30T20:31:35.431Z,12.80
2023-04-30T20:34:23.282Z,12.70
2023-04-30T20:37:10.184Z,12.50
2023-04-30T20:39:56.940Z,12.40
2023-04-30T20:42:43.481Z,12.50
2023-04-30T20:45:30.375Z,12.60
2023-04-30T20:48:17.109Z,12.60
2023-04-30T20:51:05.157Z,12.60
2023-04-30T20:53:51.847Z,12.60
2023-04-30T20:56:38.904Z,12.70
2023-04-30T20:59:25.322Z,12.70
2023-04-30T21:02:11.760Z,12.70
2023-04-30T21:05:04.127Z,12.60
2023-04-30T21:07:52.741Z,12.40
2023-04-30T21:10:39.475Z,12.20
2023-04-30T21:13:25.742Z,12.10
2023-04-30T21:16:12.233Z,12.10
2023-04-30T21:18:59.490Z,12.10
2023-04-30T21:21:46.422Z,11.90
2023-04-30T21:24:34.359Z,11.80
2023-04-30T21:27:20.843Z,11.80
2023-04-30T21:30:08.658Z,11.60
2023-04-30T21:32:58.224Z,11.60
2023-04-30T21:35:45.858Z,11.40
2023-04-30T21:38:32.633Z,11.40
2023-04-30T21:41:21.659Z,11.20
2023-04-30T21:44:08.512Z,11.10
2023-04-30T21:46:55.191Z,11.10
2023-04-30T21:49:42.680Z,11.00
2023-04-30T21:52:29.443Z,10.90
2023-04-30T21:55:15.835Z,10.90
2023-04-30T21:58:03.644Z,11.00
2023-04-30T22:00:50.724Z,11.00
2023-04-30T22:03:37.093Z,11.00
2023-04-30T22:06:24.468Z,11.10
2023-04-30T22:09:11.210Z,11.10
2023-04-30T22:11:57.693Z,11.10
2023-04-30T22:14:45.614Z,11.00
2023-04-30T22:17:32.635Z,10.80
2023-04-30T22:20:19.517Z,10.70
2023-04-30T22:23:06.595Z,10.60
2023-04-30T22:25:53.328Z,10.60
2023-04-30T22:28:40.247Z,10.50
2023-04-30T22:31:28.088Z,10.50
2023-04-30T22:34:15.505Z,10.40
2023-04-30T22:37:03.375Z,10.40
2023-04-30T22:39:50.053Z,10.30
2023-04-30T22:42:36.610Z,10.30
2023-04-30T22:45:23.400Z,10.20
2023-04-30T22:48:11.464Z,10.20
2023-04-30T22:50:58.781Z,10.30
2023-04-30T22:53:45.597Z,10.20
2023-04-30T22:56:33.851Z,10.30
2023-04-30T22:59:20.435Z,10.10
2023-04-30T23:02:07.127Z,10.10
2023-04-30T23:04:55.201Z,10.20
2023-04-30T23:07:41.920Z,10.20
2023-04-30T23:10:28.398Z,10.20
2023-04-30T23:13:15.543Z,10.20
2023-04-30T23:16:05.327Z,10.30
2023-04-30T23:18:52.030Z,10.00
2023-04-30T23:21:40.242Z,10.00
2023-04-30T23:24:27.101Z,9.90
2023-04-30T23:27:13.538Z,10.00
2023-04-30T23:29:59.826Z,10.10
2023-04-30T23:32:46.854Z,10.10
2023-04-30T23:35:33.535Z,10.00
2023-04-30T23:38:21.255Z,10.20
2023-04-30T23:41:08.668Z,10.10
2023-04-30T23:43:55.220Z,10.00
2023-04-30T23:46:42.387Z,9.80
2023-04-30T23:49:29.195Z,9.80
2023-04-30T23:52:16.359Z,9.70
2023-04-30T23:55:04.717Z,9.80
2023-04-30T23:57:51.111Z,9.80
